sensor_id;sensor_type;location;lat;lon;timestamp;temperature;humidity
48806;DHT22;34625;47.176;27.548;2023-03-03T00:02:38;21.20;63.80
48806;DHT22;34625;47.176;27.548;2023-03-03T00:05:04;21.10;63.80
48806;DHT22;34625;47.176;27.548;2023-03-03T00:07:30;21.10;63.80
48806;DHT22;34625;47.176;27.548;2023-03-03T00:09:56;21.20;64.00
48806;DHT22;34625;47.176;27.548;2023-03-03T00:14:50;21.10;64.00
48806;DHT22;34625;47.176;27.548;2023-03-03T00:17:28;21.10;63.80
48806;DHT22;34625;47.176;27.548;2023-03-03T00:19:55;21.10;63.80
48806;DHT22;34625;47.176;27.548;2023-03-03T00:22:30;21.20;63.70
48806;DHT22;34625;47.176;27.548;2023-03-03T00:25:32;21.20;63.60
48806;DHT22;34625;47.176;27.548;2023-03-03T00:28:27;21.20;63.50
48806;DHT22;34625;47.176;27.548;2023-03-03T00:30:58;21.30;63.60
48806;DHT22;34625;47.176;27.548;2023-03-03T00:33:33;21.20;63.30
48806;DHT22;34625;47.176;27.548;2023-03-03T00:38:42;21.20;63.30
48806;DHT22;34625;47.176;27.548;2023-03-03T00:41:25;21.10;63.10
48806;DHT22;34625;47.176;27.548;2023-03-03T00:43:52;21.10;63.00
48806;DHT22;34625;47.176;27.548;2023-03-03T00:46:21;21.10;63.10
48806;DHT22;34625;47.176;27.548;2023-03-03T00:48:48;21.00;63.10
48806;DHT22;34625;47.176;27.548;2023-03-03T00:51:30;21.10;63.20
48806;DHT22;34625;47.176;27.548;2023-03-03T00:53:58;21.00;63.20
48806;DHT22;34625;47.176;27.548;2023-03-03T00:56:25;21.00;63.20
48806;DHT22;34625;47.176;27.548;2023-03-03T00:58:52;21.10;63.30
48806;DHT22;34625;47.176;27.548;2023-03-03T01:01:20;20.90;63.20
48806;DHT22;34625;47.176;27.548;2023-03-03T01:03:51;21.00;63.30
48806;DHT22;34625;47.176;27.548;2023-03-03T01:06:17;20.80;63.40
48806;DHT22;34625;47.176;27.548;2023-03-03T01:08:42;20.90;63.60
48806;DHT22;34625;47.176;27.548;2023-03-03T01:11:12;20.80;63.50
48806;DHT22;34625;47.176;27.548;2023-03-03T01:13:42;20.80;63.40
48806;DHT22;34625;47.176;27.548;2023-03-03T01:16:09;20.90;63.40
48806;DHT22;34625;47.176;27.548;2023-03-03T01:18:35;20.80;63.30
48806;DHT22;34625;47.176;27.548;2023-03-03T01:21:02;20.80;63.20
48806;DHT22;34625;47.176;27.548;2023-03-03T01:23:28;20.90;63.20
48806;DHT22;34625;47.176;27.548;2023-03-03T01:25:54;20.80;63.10
48806;DHT22;34625;47.176;27.548;2023-03-03T01:28:20;20.90;63.00
48806;DHT22;34625;47.176;27.548;2023-03-03T01:30:46;20.80;62.80
48806;DHT22;34625;47.176;27.548;2023-03-03T01:33:12;21.00;62.80
48806;DHT22;34625;47.176;27.548;2023-03-03T01:35:43;20.90;62.80
48806;DHT22;34625;47.176;27.548;2023-03-03T01:38:10;20.90;62.80
48806;DHT22;34625;47.176;27.548;2023-03-03T01:40:36;20.90;62.70
48806;DHT22;34625;47.176;27.548;2023-03-03T01:43:02;20.80;62.60
48806;DHT22;34625;47.176;27.548;2023-03-03T01:45:30;20.80;62.60
48806;DHT22;34625;47.176;27.548;2023-03-03T01:53:49;20.80;62.80
48806;DHT22;34625;47.176;27.548;2023-03-03T01:56:16;20.70;62.90
48806;DHT22;34625;47.176;27.548;2023-03-03T01:58:52;20.70;62.90
48806;DHT22;34625;47.176;27.548;2023-03-03T02:01:22;20.60;62.80
48806;DHT22;34625;47.176;27.548;2023-03-03T02:03:50;20.60;62.70
48806;DHT22;34625;47.176;27.548;2023-03-03T02:06:19;20.60;62.70
48806;DHT22;34625;47.176;27.548;2023-03-03T02:09:11;20.60;62.90
48806;DHT22;34625;47.176;27.548;2023-03-03T02:11:41;20.60;62.90
48806;DHT22;34625;47.176;27.548;2023-03-03T02:14:10;20.60;62.90
48806;DHT22;34625;47.176;27.548;2023-03-03T02:16:39;20.70;63.00
48806;DHT22;34625;47.176;27.548;2023-03-03T02:22:10;20.60;62.60
48806;DHT22;34625;47.176;27.548;2023-03-03T02:25:02;20.50;62.50
48806;DHT22;34625;47.176;27.548;2023-03-03T02:27:31;20.70;62.50
48806;DHT22;34625;47.176;27.548;2023-03-03T02:30:07;20.70;62.50
48806;DHT22;34625;47.176;27.548;2023-03-03T02:32:34;20.80;62.30
48806;DHT22;34625;47.176;27.548;2023-03-03T02:35:00;20.70;62.30
48806;DHT22;34625;47.176;27.548;2023-03-03T02:37:26;20.70;62.20
48806;DHT22;34625;47.176;27.548;2023-03-03T02:39:53;20.70;62.20
48806;DHT22;34625;47.176;27.548;2023-03-03T02:42:26;20.70;62.00
48806;DHT22;34625;47.176;27.548;2023-03-03T02:44:56;20.70;61.90
48806;DHT22;34625;47.176;27.548;2023-03-03T02:47:22;20.70;62.00
48806;DHT22;34625;47.176;27.548;2023-03-03T02:49:48;20.80;62.00
48806;DHT22;34625;47.176;27.548;2023-03-03T02:52:14;20.60;61.90
48806;DHT22;34625;47.176;27.548;2023-03-03T02:54:44;20.60;61.90
48806;DHT22;34625;47.176;27.548;2023-03-03T02:57:10;20.50;61.90
48806;DHT22;34625;47.176;27.548;2023-03-03T02:59:36;20.50;62.00
48806;DHT22;34625;47.176;27.548;2023-03-03T03:02:15;20.50;62.00
48806;DHT22;34625;47.176;27.548;2023-03-03T03:04:41;20.50;61.90
48806;DHT22;34625;47.176;27.548;2023-03-03T03:07:09;20.40;61.80
48806;DHT22;34625;47.176;27.548;2023-03-03T03:09:37;20.30;61.80
48806;DHT22;34625;47.176;27.548;2023-03-03T03:12:03;20.40;61.90
48806;DHT22;34625;47.176;27.548;2023-03-03T03:14:32;20.40;62.00
48806;DHT22;34625;47.176;27.548;2023-03-03T03:16:58;20.30;62.00
48806;DHT22;34625;47.176;27.548;2023-03-03T03:19:26;20.30;61.90
48806;DHT22;34625;47.176;27.548;2023-03-03T03:21:53;20.40;61.80
48806;DHT22;34625;47.176;27.548;2023-03-03T03:24:19;20.40;61.60
48806;DHT22;34625;47.176;27.548;2023-03-03T03:26:52;20.40;61.40
48806;DHT22;34625;47.176;27.548;2023-03-03T03:29:19;20.40;61.30
48806;DHT22;34625;47.176;27.548;2023-03-03T03:31:45;20.50;61.20
48806;DHT22;34625;47.176;27.548;2023-03-03T03:34:12;20.50;61.10
48806;DHT22;34625;47.176;27.548;2023-03-03T03:36:38;20.50;61.10
48806;DHT22;34625;47.176;27.548;2023-03-03T03:39:04;20.50;61.00
48806;DHT22;34625;47.176;27.548;2023-03-03T03:41:33;20.40;60.80
48806;DHT22;34625;47.176;27.548;2023-03-03T03:43:59;20.50;60.80
48806;DHT22;34625;47.176;27.548;2023-03-03T03:46:25;20.40;60.70
48806;DHT22;34625;47.176;27.548;2023-03-03T03:48:53;20.30;60.80
48806;DHT22;34625;47.176;27.548;2023-03-03T03:51:20;20.30;60.90
48806;DHT22;34625;47.176;27.548;2023-03-03T03:53:46;20.30;60.90
48806;DHT22;34625;47.176;27.548;2023-03-03T03:56:12;20.40;60.80
48806;DHT22;34625;47.176;27.548;2023-03-03T03:58:40;20.40;60.90
48806;DHT22;34625;47.176;27.548;2023-03-03T04:01:08;20.30;60.80
48806;DHT22;34625;47.176;27.548;2023-03-03T04:03:40;20.30;60.90
48806;DHT22;34625;47.176;27.548;2023-03-03T04:06:10;20.30;60.90
48806;DHT22;34625;47.176;27.548;2023-03-03T04:08:36;20.20;60.80
48806;DHT22;34625;47.176;27.548;2023-03-03T04:11:03;20.20;60.80
48806;DHT22;34625;47.176;27.548;2023-03-03T04:13:29;20.20;60.90
48806;DHT22;34625;47.176;27.548;2023-03-03T04:15:58;20.20;60.90
48806;DHT22;34625;47.176;27.548;2023-03-03T04:18:24;20.20;60.80
48806;DHT22;34625;47.176;27.548;2023-03-03T04:20:50;20.30;60.80
48806;DHT22;34625;47.176;27.548;2023-03-03T04:23:17;20.30;60.60
48806;DHT22;34625;47.176;27.548;2023-03-03T04:25:46;20.40;60.50
48806;DHT22;34625;47.176;27.548;2023-03-03T04:28:15;20.30;60.30
48806;DHT22;34625;47.176;27.548;2023-03-03T04:30:41;20.20;60.10
48806;DHT22;34625;47.176;27.548;2023-03-03T04:33:08;20.30;60.50
48806;DHT22;34625;47.176;27.548;2023-03-03T04:35:36;20.40;60.00
48806;DHT22;34625;47.176;27.548;2023-03-03T04:38:02;20.40;59.70
48806;DHT22;34625;47.176;27.548;2023-03-03T04:40:30;20.60;59.60
48806;DHT22;34625;47.176;27.548;2023-03-03T04:42:57;20.40;59.30
48806;DHT22;34625;47.176;27.548;2023-03-03T04:45:23;20.50;59.40
48806;DHT22;34625;47.176;27.548;2023-03-03T04:47:49;20.40;59.00
48806;DHT22;34625;47.176;27.548;2023-03-03T04:50:16;20.40;59.30
48806;DHT22;34625;47.176;27.548;2023-03-03T04:52:42;20.40;59.60
48806;DHT22;34625;47.176;27.548;2023-03-03T04:55:09;20.30;59.90
48806;DHT22;34625;47.176;27.548;2023-03-03T04:57:35;20.20;59.90
48806;DHT22;34625;47.176;27.548;2023-03-03T05:00:02;20.20;60.00
48806;DHT22;34625;47.176;27.548;2023-03-03T05:02:30;20.10;60.00
48806;DHT22;34625;47.176;27.548;2023-03-03T05:04:56;20.20;60.40
48806;DHT22;34625;47.176;27.548;2023-03-03T05:07:22;20.10;59.90
48806;DHT22;34625;47.176;27.548;2023-03-03T05:09:49;20.20;59.90
48806;DHT22;34625;47.176;27.548;2023-03-03T05:12:15;20.20;60.10
48806;DHT22;34625;47.176;27.548;2023-03-03T05:14:42;20.10;60.10
48806;DHT22;34625;47.176;27.548;2023-03-03T05:17:08;20.10;60.10
48806;DHT22;34625;47.176;27.548;2023-03-03T05:19:33;20.10;60.00
48806;DHT22;34625;47.176;27.548;2023-03-03T05:22:00;20.20;60.30
48806;DHT22;34625;47.176;27.548;2023-03-03T05:24:26;20.20;59.90
48806;DHT22;34625;47.176;27.548;2023-03-03T05:26:52;20.20;59.50
48806;DHT22;34625;47.176;27.548;2023-03-03T05:29:18;20.20;59.10
48806;DHT22;34625;47.176;27.548;2023-03-03T05:31:44;20.30;59.40
48806;DHT22;34625;47.176;27.548;2023-03-03T05:34:10;20.40;59.20
48806;DHT22;34625;47.176;27.548;2023-03-03T05:36:36;20.30;59.50
48806;DHT22;34625;47.176;27.548;2023-03-03T05:39:02;20.30;58.80
48806;DHT22;34625;47.176;27.548;2023-03-03T05:41:28;20.40;58.70
48806;DHT22;34625;47.176;27.548;2023-03-03T05:43:54;20.40;58.80
48806;DHT22;34625;47.176;27.548;2023-03-03T05:46:20;20.30;59.00
48806;DHT22;34625;47.176;27.548;2023-03-03T05:48:46;20.20;58.80
48806;DHT22;34625;47.176;27.548;2023-03-03T05:51:12;20.30;59.10
48806;DHT22;34625;47.176;27.548;2023-03-03T05:53:38;20.20;59.10
48806;DHT22;34625;47.176;27.548;2023-03-03T05:56:04;20.20;59.10
48806;DHT22;34625;47.176;27.548;2023-03-03T05:58:31;20.20;59.00
48806;DHT22;34625;47.176;27.548;2023-03-03T06:00:56;20.10;59.00
48806;DHT22;34625;47.176;27.548;2023-03-03T06:03:22;20.10;59.10
48806;DHT22;34625;47.176;27.548;2023-03-03T06:05:48;20.00;59.10
48806;DHT22;34625;47.176;27.548;2023-03-03T06:08:14;20.20;59.20
48806;DHT22;34625;47.176;27.548;2023-03-03T06:10:41;20.10;59.20
48806;DHT22;34625;47.176;27.548;2023-03-03T06:13:09;20.10;57.10
48806;DHT22;34625;47.176;27.548;2023-03-03T06:15:35;20.20;60.50
48806;DHT22;34625;47.176;27.548;2023-03-03T06:18:01;20.30;54.10
48806;DHT22;34625;47.176;27.548;2023-03-03T06:20:27;20.50;52.00
48806;DHT22;34625;47.176;27.548;2023-03-03T06:22:53;20.50;50.10
48806;DHT22;34625;47.176;27.548;2023-03-03T06:25:19;20.70;50.00
48806;DHT22;34625;47.176;27.548;2023-03-03T06:27:45;20.60;51.30
48806;DHT22;34625;47.176;27.548;2023-03-03T06:30:11;20.80;50.70
48806;DHT22;34625;47.176;27.548;2023-03-03T06:32:38;20.80;49.90
48806;DHT22;34625;47.176;27.548;2023-03-03T06:35:04;20.80;48.80
48806;DHT22;34625;47.176;27.548;2023-03-03T06:37:30;20.90;48.50
48806;DHT22;34625;47.176;27.548;2023-03-03T06:39:56;20.90;48.80
48806;DHT22;34625;47.176;27.548;2023-03-03T06:42:22;21.10;58.20
48806;DHT22;34625;47.176;27.548;2023-03-03T06:44:49;21.40;62.00
48806;DHT22;34625;47.176;27.548;2023-03-03T06:47:16;21.60;58.50
48806;DHT22;34625;47.176;27.548;2023-03-03T06:49:41;21.90;57.20
48806;DHT22;34625;47.176;27.548;2023-03-03T06:52:12;21.80;54.70
48806;DHT22;34625;47.176;27.548;2023-03-03T06:54:39;21.90;54.40
48806;DHT22;34625;47.176;27.548;2023-03-03T06:57:25;22.00;53.90
48806;DHT22;34625;47.176;27.548;2023-03-03T06:59:54;22.10;53.90
48806;DHT22;34625;47.176;27.548;2023-03-03T07:02:21;22.20;53.70
48806;DHT22;34625;47.176;27.548;2023-03-03T07:04:47;22.30;55.60
48806;DHT22;34625;47.176;27.548;2023-03-03T07:07:17;22.30;57.80
48806;DHT22;34625;47.176;27.548;2023-03-03T07:09:47;22.40;56.40
48806;DHT22;34625;47.176;27.548;2023-03-03T07:12:20;22.30;55.50
48806;DHT22;34625;47.176;27.548;2023-03-03T07:14:55;22.20;55.30
48806;DHT22;34625;47.176;27.548;2023-03-03T07:17:24;22.00;56.20
48806;DHT22;34625;47.176;27.548;2023-03-03T07:19:50;22.20;56.10
48806;DHT22;34625;47.176;27.548;2023-03-03T07:22:23;22.30;55.90
48806;DHT22;34625;47.176;27.548;2023-03-03T07:24:58;22.40;55.50
48806;DHT22;34625;47.176;27.548;2023-03-03T07:27:28;22.50;55.30
48806;DHT22;34625;47.176;27.548;2023-03-03T07:30:16;22.50;55.20
48806;DHT22;34625;47.176;27.548;2023-03-03T07:32:45;22.60;55.00
48806;DHT22;34625;47.176;27.548;2023-03-03T07:37:49;22.60;54.40
48806;DHT22;34625;47.176;27.548;2023-03-03T07:43:00;22.80;54.20
48806;DHT22;34625;47.176;27.548;2023-03-03T07:45:36;22.70;54.00
48806;DHT22;34625;47.176;27.548;2023-03-03T07:48:15;22.80;54.00
48806;DHT22;34625;47.176;27.548;2023-03-03T07:50:43;22.70;53.80
48806;DHT22;34625;47.176;27.548;2023-03-03T07:53:30;22.70;53.70
48806;DHT22;34625;47.176;27.548;2023-03-03T07:56:00;22.70;53.70
48806;DHT22;34625;47.176;27.548;2023-03-03T07:58:40;22.90;53.90
48806;DHT22;34625;47.176;27.548;2023-03-03T08:03:51;22.80;53.60
48806;DHT22;34625;47.176;27.548;2023-03-03T08:06:30;22.80;53.40
48806;DHT22;34625;47.176;27.548;2023-03-03T08:14:34;22.90;56.00
48806;DHT22;34625;47.176;27.548;2023-03-03T08:17:01;22.80;57.10
48806;DHT22;34625;47.176;27.548;2023-03-03T08:19:29;23.10;58.90
48806;DHT22;34625;47.176;27.548;2023-03-03T08:22:01;23.30;58.10
48806;DHT22;34625;47.176;27.548;2023-03-03T08:24:34;23.40;50.90
48806;DHT22;34625;47.176;27.548;2023-03-03T08:27:00;23.50;41.90
48806;DHT22;34625;47.176;27.548;2023-03-03T08:29:26;23.50;50.80
48806;DHT22;34625;47.176;27.548;2023-03-03T08:31:52;23.40;52.30
48806;DHT22;34625;47.176;27.548;2023-03-03T08:34:18;23.30;52.90
48806;DHT22;34625;47.176;27.548;2023-03-03T08:36:44;23.20;53.90
48806;DHT22;34625;47.176;27.548;2023-03-03T08:39:12;23.00;54.90
48806;DHT22;34625;47.176;27.548;2023-03-03T08:41:38;22.90;55.80
48806;DHT22;34625;47.176;27.548;2023-03-03T08:44:09;22.90;56.40
48806;DHT22;34625;47.176;27.548;2023-03-03T08:46:35;22.60;56.50
48806;DHT22;34625;47.176;27.548;2023-03-03T08:49:01;22.70;56.70
48806;DHT22;34625;47.176;27.548;2023-03-03T08:51:29;22.70;57.30
48806;DHT22;34625;47.176;27.548;2023-03-03T08:53:55;22.60;57.50
48806;DHT22;34625;47.176;27.548;2023-03-03T08:56:21;22.60;57.80
48806;DHT22;34625;47.176;27.548;2023-03-03T08:58:47;22.50;58.40
48806;DHT22;34625;47.176;27.548;2023-03-03T09:01:14;22.40;58.60
48806;DHT22;34625;47.176;27.548;2023-03-03T09:03:42;22.50;58.90
48806;DHT22;34625;47.176;27.548;2023-03-03T09:06:08;22.70;58.50
48806;DHT22;34625;47.176;27.548;2023-03-03T09:08:34;22.80;58.00
48806;DHT22;34625;47.176;27.548;2023-03-03T09:11:00;22.80;57.90
48806;DHT22;34625;47.176;27.548;2023-03-03T09:13:29;22.80;57.80
48806;DHT22;34625;47.176;27.548;2023-03-03T09:15:57;22.70;57.80
48806;DHT22;34625;47.176;27.548;2023-03-03T09:18:50;22.70;57.90
48806;DHT22;34625;47.176;27.548;2023-03-03T09:21:25;22.70;58.30
48806;DHT22;34625;47.176;27.548;2023-03-03T09:23:56;22.90;57.60
48806;DHT22;34625;47.176;27.548;2023-03-03T09:29:22;22.90;57.80
48806;DHT22;34625;47.176;27.548;2023-03-03T09:31:51;22.80;57.50
48806;DHT22;34625;47.176;27.548;2023-03-03T09:34:22;22.90;57.60
48806;DHT22;34625;47.176;27.548;2023-03-03T09:36:50;22.90;57.80
48806;DHT22;34625;47.176;27.548;2023-03-03T09:39:19;23.00;57.70
48806;DHT22;34625;47.176;27.548;2023-03-03T09:47:58;22.70;58.40
48806;DHT22;34625;47.176;27.548;2023-03-03T09:50:53;22.80;57.80
48806;DHT22;34625;47.176;27.548;2023-03-03T09:56:21;22.80;57.70
48806;DHT22;34625;47.176;27.548;2023-03-03T10:04:52;22.90;58.10
48806;DHT22;34625;47.176;27.548;2023-03-03T10:13:10;23.00;58.30
48806;DHT22;34625;47.176;27.548;2023-03-03T10:16:08;22.90;58.30
48806;DHT22;34625;47.176;27.548;2023-03-03T10:19:09;22.90;58.60
48806;DHT22;34625;47.176;27.548;2023-03-03T10:21:54;22.90;58.90
48806;DHT22;34625;47.176;27.548;2023-03-03T10:24:28;22.90;58.90
48806;DHT22;34625;47.176;27.548;2023-03-03T10:27:04;22.90;59.00
48806;DHT22;34625;47.176;27.548;2023-03-03T10:32:39;22.90;59.10
48806;DHT22;34625;47.176;27.548;2023-03-03T10:35:24;22.80;59.20
48806;DHT22;34625;47.176;27.548;2023-03-03T10:40:55;22.80;58.90
48806;DHT22;34625;47.176;27.548;2023-03-03T10:43:45;22.90;54.50
48806;DHT22;34625;47.176;27.548;2023-03-03T10:46:28;22.80;52.50
48806;DHT22;34625;47.176;27.548;2023-03-03T10:49:25;22.80;49.20
48806;DHT22;34625;47.176;27.548;2023-03-03T10:57:29;23.00;48.30
48806;DHT22;34625;47.176;27.548;2023-03-03T11:08:51;23.10;40.20
48806;DHT22;34625;47.176;27.548;2023-03-03T11:11:33;23.00;39.90
48806;DHT22;34625;47.176;27.548;2023-03-03T11:14:17;22.90;41.00
48806;DHT22;34625;47.176;27.548;2023-03-03T11:20:07;22.90;39.80
48806;DHT22;34625;47.176;27.548;2023-03-03T11:22:52;22.90;50.20
48806;DHT22;34625;47.176;27.548;2023-03-03T11:33:45;23.40;50.40
48806;DHT22;34625;47.176;27.548;2023-03-03T11:38:45;23.70;44.00
48806;DHT22;34625;47.176;27.548;2023-03-03T11:41:41;23.60;42.10
48806;DHT22;34625;47.176;27.548;2023-03-03T11:49:46;23.50;54.90
48806;DHT22;34625;47.176;27.548;2023-03-03T11:55:24;23.60;55.50
48806;DHT22;34625;47.176;27.548;2023-03-03T11:58:05;23.70;56.40
48806;DHT22;34625;47.176;27.548;2023-03-03T12:03:15;23.70;56.90
48806;DHT22;34625;47.176;27.548;2023-03-03T12:05:57;23.60;56.70
48806;DHT22;34625;47.176;27.548;2023-03-03T12:13:57;23.60;57.40
48806;DHT22;34625;47.176;27.548;2023-03-03T12:16:34;23.70;57.40
48806;DHT22;34625;47.176;27.548;2023-03-03T12:22:35;23.70;57.40
48806;DHT22;34625;47.176;27.548;2023-03-03T12:27:51;23.70;57.60
48806;DHT22;34625;47.176;27.548;2023-03-03T12:39:16;23.70;57.50
48806;DHT22;34625;47.176;27.548;2023-03-03T12:41:44;23.70;58.00
48806;DHT22;34625;47.176;27.548;2023-03-03T12:44:28;23.60;58.00
48806;DHT22;34625;47.176;27.548;2023-03-03T12:47:09;23.60;58.20
48806;DHT22;34625;47.176;27.548;2023-03-03T13:06:29;23.60;57.70
48806;DHT22;34625;47.176;27.548;2023-03-03T13:14:53;23.70;57.70
48806;DHT22;34625;47.176;27.548;2023-03-03T13:17:34;23.60;57.60
48806;DHT22;34625;47.176;27.548;2023-03-03T13:20:16;23.60;57.60
48806;DHT22;34625;47.176;27.548;2023-03-03T13:23:05;23.60;57.70
48806;DHT22;34625;47.176;27.548;2023-03-03T13:25:49;23.50;57.70
48806;DHT22;34625;47.176;27.548;2023-03-03T13:28:37;23.60;57.60
48806;DHT22;34625;47.176;27.548;2023-03-03T13:31:14;23.70;57.70
48806;DHT22;34625;47.176;27.548;2023-03-03T13:33:47;23.50;57.60
48806;DHT22;34625;47.176;27.548;2023-03-03T13:36:17;23.40;57.70
48806;DHT22;34625;47.176;27.548;2023-03-03T13:38:49;23.50;57.90
48806;DHT22;34625;47.176;27.548;2023-03-03T13:46:42;23.40;57.70
48806;DHT22;34625;47.176;27.548;2023-03-03T13:54:50;23.40;57.90
48806;DHT22;34625;47.176;27.548;2023-03-03T14:05:51;23.20;58.40
48806;DHT22;34625;47.176;27.548;2023-03-03T14:17:26;23.20;58.40
48806;DHT22;34625;47.176;27.548;2023-03-03T14:20:11;23.20;58.60
48806;DHT22;34625;47.176;27.548;2023-03-03T14:23:09;23.20;58.60
48806;DHT22;34625;47.176;27.548;2023-03-03T14:25:56;23.10;58.70
48806;DHT22;34625;47.176;27.548;2023-03-03T14:28:25;23.10;58.80
48806;DHT22;34625;47.176;27.548;2023-03-03T14:30:55;23.10;58.70
48806;DHT22;34625;47.176;27.548;2023-03-03T14:33:25;23.30;58.90
48806;DHT22;34625;47.176;27.548;2023-03-03T14:38:39;23.10;57.20
48806;DHT22;34625;47.176;27.548;2023-03-03T14:41:12;23.10;55.60
48806;DHT22;34625;47.176;27.548;2023-03-03T14:43:43;23.10;53.90
48806;DHT22;34625;47.176;27.548;2023-03-03T14:48:56;23.10;51.80
48806;DHT22;34625;47.176;27.548;2023-03-03T14:51:30;23.10;50.90
48806;DHT22;34625;47.176;27.548;2023-03-03T14:53:58;23.10;49.90
48806;DHT22;34625;47.176;27.548;2023-03-03T14:56:29;23.00;48.90
48806;DHT22;34625;47.176;27.548;2023-03-03T14:59:19;23.00;45.80
48806;DHT22;34625;47.176;27.548;2023-03-03T15:01:46;22.90;46.50
48806;DHT22;34625;47.176;27.548;2023-03-03T15:06:42;22.90;46.30
48806;DHT22;34625;47.176;27.548;2023-03-03T15:09:26;22.90;46.90
48806;DHT22;34625;47.176;27.548;2023-03-03T15:11:54;22.90;47.70
48806;DHT22;34625;47.176;27.548;2023-03-03T15:16:57;22.90;48.90
48806;DHT22;34625;47.176;27.548;2023-03-03T15:19:43;23.00;50.90
48806;DHT22;34625;47.176;27.548;2023-03-03T15:25:23;22.90;55.10
48806;DHT22;34625;47.176;27.548;2023-03-03T15:33:43;23.30;46.10
48806;DHT22;34625;47.176;27.548;2023-03-03T15:36:43;23.30;46.30
48806;DHT22;34625;47.176;27.548;2023-03-03T15:42:04;23.40;43.80
48806;DHT22;34625;47.176;27.548;2023-03-03T15:45:06;23.40;47.60
48806;DHT22;34625;47.176;27.548;2023-03-03T15:47:37;23.40;46.70
48806;DHT22;34625;47.176;27.548;2023-03-03T15:55:56;23.40;52.80
48806;DHT22;34625;47.176;27.548;2023-03-03T16:03:37;23.30;53.80
48806;DHT22;34625;47.176;27.548;2023-03-03T16:06:23;23.30;54.50
48806;DHT22;34625;47.176;27.548;2023-03-03T16:09:12;23.20;53.00
48806;DHT22;34625;47.176;27.548;2023-03-03T16:20:02;23.20;55.10
48806;DHT22;34625;47.176;27.548;2023-03-03T16:28:25;23.20;54.00
48806;DHT22;34625;47.176;27.548;2023-03-03T16:31:27;22.90;55.10
48806;DHT22;34625;47.176;27.548;2023-03-03T16:34:29;22.90;55.20
48806;DHT22;34625;47.176;27.548;2023-03-03T16:37:32;22.80;55.70
48806;DHT22;34625;47.176;27.548;2023-03-03T16:40:18;22.70;56.50
48806;DHT22;34625;47.176;27.548;2023-03-03T16:42:46;22.70;56.80
48806;DHT22;34625;47.176;27.548;2023-03-03T16:45:29;22.60;56.80
48806;DHT22;34625;47.176;27.548;2023-03-03T16:50:34;22.70;57.20
48806;DHT22;34625;47.176;27.548;2023-03-03T16:56:05;22.60;55.90
48806;DHT22;34625;47.176;27.548;2023-03-03T17:01:54;22.50;57.30
48806;DHT22;34625;47.176;27.548;2023-03-03T17:24:16;23.40;53.60
48806;DHT22;34625;47.176;27.548;2023-03-03T17:27:13;23.50;51.40
48806;DHT22;34625;47.176;27.548;2023-03-03T17:32:54;23.70;51.50
48806;DHT22;34625;47.176;27.548;2023-03-03T17:43:37;23.90;46.70
48806;DHT22;34625;47.176;27.548;2023-03-03T17:46:14;24.00;46.00
48806;DHT22;34625;47.176;27.548;2023-03-03T17:51:38;24.00;46.90
48806;DHT22;34625;47.176;27.548;2023-03-03T17:58:14;23.80;40.90
48806;DHT22;34625;47.176;27.548;2023-03-03T18:06:25;23.50;40.10
48806;DHT22;34625;47.176;27.548;2023-03-03T18:25:23;23.60;53.60
48806;DHT22;34625;47.176;27.548;2023-03-03T18:38:57;23.50;57.40
48806;DHT22;34625;47.176;27.548;2023-03-03T18:41:33;23.50;57.60
48806;DHT22;34625;47.176;27.548;2023-03-03T18:44:28;23.50;58.50
48806;DHT22;34625;47.176;27.548;2023-03-03T18:46:55;23.50;58.60
48806;DHT22;34625;47.176;27.548;2023-03-03T18:49:56;23.50;59.20
48806;DHT22;34625;47.176;27.548;2023-03-03T18:52:32;23.50;58.60
48806;DHT22;34625;47.176;27.548;2023-03-03T18:57:35;23.40;59.30
48806;DHT22;34625;47.176;27.548;2023-03-03T19:02:52;23.50;60.40
48806;DHT22;34625;47.176;27.548;2023-03-03T19:05:23;23.40;61.30
48806;DHT22;34625;47.176;27.548;2023-03-03T19:08:18;23.40;61.30
48806;DHT22;34625;47.176;27.548;2023-03-03T19:10:57;23.40;61.50
48806;DHT22;34625;47.176;27.548;2023-03-03T19:13:39;23.40;61.50
48806;DHT22;34625;47.176;27.548;2023-03-03T19:16:25;23.30;59.60
48806;DHT22;34625;47.176;27.548;2023-03-03T19:18:59;23.20;60.30
48806;DHT22;34625;47.176;27.548;2023-03-03T19:21:31;23.30;60.30
48806;DHT22;34625;47.176;27.548;2023-03-03T19:40:24;23.10;63.00
48806;DHT22;34625;47.176;27.548;2023-03-03T19:48:39;23.00;62.20
48806;DHT22;34625;47.176;27.548;2023-03-03T19:51:30;23.00;58.90
48806;DHT22;34625;47.176;27.548;2023-03-03T19:54:08;22.80;60.00
48806;DHT22;34625;47.176;27.548;2023-03-03T19:56:46;22.60;63.00
48806;DHT22;34625;47.176;27.548;2023-03-03T20:05:34;22.90;65.60
48806;DHT22;34625;47.176;27.548;2023-03-03T20:08:13;23.00;66.30
48806;DHT22;34625;47.176;27.548;2023-03-03T20:10:58;23.10;65.00
48806;DHT22;34625;47.176;27.548;2023-03-03T20:13:49;23.20;65.70
48806;DHT22;34625;47.176;27.548;2023-03-03T20:16:35;23.20;66.10
48806;DHT22;34625;47.176;27.548;2023-03-03T20:21:48;23.20;62.90
48806;DHT22;34625;47.176;27.548;2023-03-03T20:27:14;23.10;66.00
48806;DHT22;34625;47.176;27.548;2023-03-03T20:40:50;23.00;65.80
48806;DHT22;34625;47.176;27.548;2023-03-03T20:43:57;23.00;66.00
48806;DHT22;34625;47.176;27.548;2023-03-03T20:49:38;23.30;62.00
48806;DHT22;34625;47.176;27.548;2023-03-03T20:55:09;23.40;62.50
48806;DHT22;34625;47.176;27.548;2023-03-03T21:00:34;23.20;61.40
48806;DHT22;34625;47.176;27.548;2023-03-03T21:03:19;23.00;60.50
48806;DHT22;34625;47.176;27.548;2023-03-03T21:05:56;23.20;60.70
48806;DHT22;34625;47.176;27.548;2023-03-03T21:08:40;23.00;61.00
48806;DHT22;34625;47.176;27.548;2023-03-03T21:11:07;23.00;60.40
48806;DHT22;34625;47.176;27.548;2023-03-03T21:21:28;23.40;59.70
48806;DHT22;34625;47.176;27.548;2023-03-03T21:23:55;23.50;59.80
48806;DHT22;34625;47.176;27.548;2023-03-03T21:29:19;23.60;59.70
48806;DHT22;34625;47.176;27.548;2023-03-03T21:31:51;23.60;59.70
48806;DHT22;34625;47.176;27.548;2023-03-03T21:34:33;23.60;59.80
48806;DHT22;34625;47.176;27.548;2023-03-03T21:37:05;23.60;59.80
48806;DHT22;34625;47.176;27.548;2023-03-03T21:39:38;23.70;59.90
48806;DHT22;34625;47.176;27.548;2023-03-03T21:42:14;23.70;59.80
48806;DHT22;34625;47.176;27.548;2023-03-03T21:44:45;23.70;59.70
48806;DHT22;34625;47.176;27.548;2023-03-03T21:47:18;23.60;59.40
48806;DHT22;34625;47.176;27.548;2023-03-03T21:49:46;23.50;59.90
48806;DHT22;34625;47.176;27.548;2023-03-03T21:52:14;23.40;60.30
48806;DHT22;34625;47.176;27.548;2023-03-03T21:54:42;23.10;60.90